map of ITH home
ITH - Airport
Location
City:  Ithaca, New York, United States
Name:Ithaca Tompkins Regional
ICAO:KITH
IATA:ITH
FAA LID:ITH

Details
Type:Airport (Part 139 Class I)
Use:Public/Civil
Latitude:4229'29"N (42.491361)
Longitude:7627'31"W (-76.458721)
Datum:WGS 1984
Elevation:1099 ft (335 m)
Variation:11.87W (WMM2015v2 magnetic declination)
0.05 annual change
Runways:2
Longest:6977 × 150 ft (2127 × 45.5 m), paved

Time
Time Zone:UTC-5 (DST-4)
Local Time:

Weather
METAR:KITH 041356Z 14007KT 10SM BKN050 07/03 A3001 RMK AO2 SLP166 T00720028
TAF:KITH 041132Z 0412/0512 17006KT P6SM OVC060
FM041800 17005KT P6SM SCT120
FM050400 18010G18KT 6SM -SHRA OVC050
FM050900 21008KT P6SM OVC030

Related Locations
Nearby:
Farthest:YAUG: 11593 mi / 18657 km
Augusta [Augusta Airport], WA, AU

Find:

   beyond  
but within

Other Information
Maps:
Delays:
NOTAMs:
Links:
Sources:

  
  • flag of United States
  • flag of New York
  

Airport Diagram

Airport diagram for ITH

Airport diagram PDF from FAA

Sectional Chart

Flight Planning
at skyvector.com

Satellite Image

Google Maps Satellite view

 

Copyright © 2004-2019 Karl L. Swartz. All rights reserved.
The Great Circle Mapper name and logo are trademarks of the Great Circle Mapper.
All other trademarks mentioned herein belong to their respective owners.
Please see credits for attibutions and further copyright information.

  Follow gcmap on Facebook Follow gcmap on Twitter GCmap on LinkedIn

hCard Microformat

Geo Microformat